createdAt,value
2022-10-22T00:01:39.141Z,10.47
2022-10-22T00:04:42.330Z,10.46
2022-10-22T00:07:44.988Z,10.47
2022-10-22T00:10:48.069Z,10.43
2022-10-22T00:13:51.154Z,10.29
2022-10-22T00:16:54.156Z,10.35
2022-10-22T00:19:57.177Z,10.39
2022-10-22T00:23:00.055Z,10.36
2022-10-22T00:26:02.663Z,10.29
2022-10-22T00:29:05.756Z,10.24
2022-10-22T00:32:08.379Z,10.27
2022-10-22T00:35:11.713Z,10.26
2022-10-22T00:38:16.072Z,10.27
2022-10-22T00:41:19.192Z,10.27
2022-10-22T00:44:59.186Z,10.27
2022-10-22T00:48:04.695Z,10.27
2022-10-22T00:51:08.536Z,10.27
2022-10-22T00:54:11.642Z,10.30
2022-10-22T00:57:15.763Z,10.30
2022-10-22T01:00:18.915Z,10.30
2022-10-22T01:03:21.555Z,10.31
2022-10-22T01:06:28.635Z,10.27
2022-10-22T01:09:46.850Z,10.22
2022-10-22T01:13:12.666Z,10.18
2022-10-22T01:16:22.921Z,10.12
2022-10-22T01:19:46.978Z,10.07
2022-10-22T01:23:21.407Z,10.04
2022-10-22T01:26:41.623Z,10.03
2022-10-22T01:29:49.966Z,9.98
2022-10-22T01:32:57.241Z,9.93
2022-10-22T01:36:00.209Z,9.89
2022-10-22T01:39:05.535Z,9.85
2022-10-22T01:42:08.095Z,9.81
2022-10-22T01:45:13.197Z,9.74
2022-10-22T01:48:45.559Z,9.78
2022-10-22T01:52:02.449Z,9.66
2022-10-22T01:55:23.643Z,9.69
2022-10-22T01:59:00.879Z,9.67
2022-10-22T02:02:11.411Z,9.63
2022-10-22T02:05:24.868Z,9.58
2022-10-22T02:08:31.447Z,9.56
2022-10-22T02:11:34.798Z,9.61
2022-10-22T02:14:41.591Z,9.63
2022-10-22T02:17:46.667Z,9.65
2022-10-22T02:20:50.039Z,9.55
2022-10-22T02:23:52.951Z,9.59
2022-10-22T02:27:25.756Z,9.60
2022-10-22T02:30:32.140Z,9.63
2022-10-22T02:33:41.688Z,9.66
2022-10-22T02:36:48.177Z,9.73
2022-10-22T02:39:54.582Z,9.73
2022-10-22T02:42:57.917Z,9.83
2022-10-22T02:46:00.572Z,9.83
2022-10-22T02:49:03.535Z,9.88
2022-10-22T02:52:06.093Z,9.91
2022-10-22T02:55:09.152Z,9.96
2022-10-22T02:58:13.919Z,9.97
2022-10-22T03:01:16.772Z,9.98
2022-10-22T03:04:19.478Z,10.00
2022-10-22T03:07:22.303Z,10.07
2022-10-22T03:10:24.859Z,10.11
2022-10-22T03:13:27.683Z,10.05
2022-10-22T03:16:30.324Z,10.09
2022-10-22T03:19:33.442Z,10.07
2022-10-22T03:22:40.284Z,10.11
2022-10-22T03:25:43.604Z,10.15
2022-10-22T03:28:48.491Z,10.13
2022-10-22T03:31:52.380Z,10.17
2022-10-22T03:34:54.999Z,10.20
2022-10-22T03:38:01.435Z,10.22
2022-10-22T03:41:04.154Z,10.23
2022-10-22T03:44:07.127Z,10.19
2022-10-22T03:47:10.379Z,10.18
2022-10-22T03:50:13.311Z,10.14
2022-10-22T03:53:15.907Z,10.13
2022-10-22T03:56:18.787Z,10.13
2022-10-22T03:59:21.351Z,10.08
2022-10-22T04:02:24.231Z,10.09
2022-10-22T04:05:27.208Z,10.05
2022-10-22T04:08:30.120Z,10.04
2022-10-22T04:11:33.211Z,10.04
2022-10-22T04:14:35.829Z,9.99
2022-10-22T04:17:39.062Z,9.96
2022-10-22T04:20:42.118Z,10.00
2022-10-22T04:23:50.165Z,10.07
2022-10-22T04:26:56.338Z,10.12
2022-10-22T04:29:59.364Z,10.19
2022-10-22T04:33:02.381Z,10.20
2022-10-22T04:36:14.250Z,10.25
2022-10-22T04:39:16.826Z,10.26
2022-10-22T04:42:19.695Z,10.26
2022-10-22T04:45:22.240Z,10.29
2022-10-22T04:48:25.179Z,10.26
2022-10-22T04:51:28.001Z,10.23
2022-10-22T04:54:33.115Z,10.16
2022-10-22T04:57:36.101Z,10.04
2022-10-22T05:00:38.969Z,9.98
2022-10-22T05:03:42.396Z,9.97
2022-10-22T05:06:45.965Z,10.03
2022-10-22T05:09:48.494Z,10.03
2022-10-22T05:12:51.463Z,10.01
2022-10-22T05:15:54.363Z,9.97
2022-10-22T05:18:59.620Z,9.95
2022-10-22T05:22:04.602Z,9.91
2022-10-22T05:25:07.913Z,9.88
2022-10-22T05:28:10.406Z,9.90
2022-10-22T05:31:13.954Z,9.86
2022-10-22T05:34:17.095Z,9.91
2022-10-22T05:37:19.920Z,9.99
2022-10-22T05:40:30.438Z,10.07
2022-10-22T05:43:35.111Z,10.09
2022-10-22T05:46:37.767Z,10.09
2022-10-22T05:49:40.585Z,10.16
2022-10-22T05:52:43.474Z,10.22
2022-10-22T05:55:46.576Z,10.38
2022-10-22T05:58:49.281Z,10.59
2022-10-22T06:01:52.301Z,10.74
2022-10-22T06:04:55.163Z,11.01
2022-10-22T06:07:58.048Z,11.28
2022-10-22T06:11:01.068Z,11.52
2022-10-22T06:14:04.758Z,11.76
2022-10-22T06:17:07.665Z,11.99
2022-10-22T06:20:11.170Z,12.13
2022-10-22T06:23:14.872Z,12.16
2022-10-22T06:26:17.970Z,12.34
2022-10-22T06:29:21.723Z,12.48
2022-10-22T06:32:24.343Z,12.58
2022-10-22T06:35:27.173Z,12.60
2022-10-22T06:38:29.720Z,12.61
2022-10-22T06:41:32.683Z,12.70
2022-10-22T06:44:35.298Z,12.70
2022-10-22T06:47:38.580Z,12.74
2022-10-22T06:50:42.003Z,12.80
2022-10-22T06:53:45.009Z,12.85
2022-10-22T06:56:47.810Z,12.96
2022-10-22T06:59:50.695Z,13.03
2022-10-22T07:02:57.638Z,13.17
2022-10-22T07:06:03.675Z,13.28
2022-10-22T07:09:06.782Z,13.47
2022-10-22T07:12:09.869Z,13.61
2022-10-22T07:15:12.471Z,13.79
2022-10-22T07:18:15.289Z,13.98
2022-10-22T07:21:20.357Z,14.09
2022-10-22T07:24:23.331Z,14.26
2022-10-22T07:27:25.939Z,14.37
2022-10-22T07:30:28.819Z,14.53
2022-10-22T07:33:31.470Z,14.70
2022-10-22T07:36:34.399Z,14.78
2022-10-22T07:39:37.118Z,14.79
2022-10-22T07:42:39.960Z,14.78
2022-10-22T07:45:42.516Z,14.73
2022-10-22T07:48:45.356Z,14.75
2022-10-22T07:51:47.940Z,14.84
2022-10-22T07:54:50.751Z,14.91
2022-10-22T07:57:53.326Z,15.07
2022-10-22T08:00:57.988Z,15.20
2022-10-22T08:04:00.901Z,15.32
2022-10-22T08:07:03.526Z,15.43
2022-10-22T08:10:07.407Z,15.50
2022-10-22T08:19:18.922Z,15.65
2022-10-22T08:22:21.904Z,15.55
2022-10-22T08:25:24.446Z,15.57
2022-10-22T08:28:28.826Z,15.57
2022-10-22T08:31:31.605Z,15.64
2022-10-22T08:34:34.542Z,15.76
2022-10-22T08:37:37.256Z,15.78
2022-10-22T08:40:40.974Z,15.80
2022-10-22T08:44:23.260Z,15.80
2022-10-22T08:47:44.675Z,15.71
2022-10-22T08:50:50.088Z,16.01
2022-10-22T08:54:25.536Z,16.24
2022-10-22T08:57:36.776Z,16.35
2022-10-22T09:00:55.718Z,16.40
2022-10-22T09:04:39.208Z,16.60
2022-10-22T09:07:48.584Z,16.54
2022-10-22T09:11:15.883Z,16.79
2022-10-22T09:14:22.069Z,17.12
2022-10-22T09:17:35.431Z,17.48
2022-10-22T09:20:55.980Z,17.64
2022-10-22T09:24:13.555Z,17.61
2022-10-22T09:27:20.092Z,17.56
2022-10-22T09:30:24.955Z,17.52
2022-10-22T09:33:30.830Z,17.33
2022-10-22T09:36:34.547Z,17.28
2022-10-22T09:39:41.018Z,17.37
2022-10-22T09:42:45.368Z,17.67
2022-10-22T09:45:56.001Z,17.90
2022-10-22T09:49:07.004Z,18.04
2022-10-22T09:52:27.599Z,18.38
2022-10-22T09:55:30.225Z,18.49
2022-10-22T09:58:43.771Z,18.71
2022-10-22T10:01:46.364Z,18.96
2022-10-22T10:04:54.728Z,19.25
2022-10-22T10:07:58.225Z,19.47
2022-10-22T10:11:04.303Z,19.62
2022-10-22T10:14:09.851Z,19.77
2022-10-22T10:17:12.635Z,19.88
2022-10-22T10:20:59.875Z,19.86
2022-10-22T10:24:21.153Z,19.60
2022-10-22T10:27:35.262Z,19.84
2022-10-22T10:30:47.912Z,20.12
2022-10-22T10:33:56.360Z,20.35
2022-10-22T10:37:15.239Z,20.42
2022-10-22T10:40:45.672Z,20.42
2022-10-22T10:44:10.462Z,20.60
2022-10-22T10:47:45.945Z,20.55
2022-10-22T10:51:09.033Z,20.48
2022-10-22T10:54:35.511Z,20.60
2022-10-22T10:57:59.843Z,20.66
2022-10-22T11:01:37.495Z,20.85
2022-10-22T11:05:01.849Z,21.01
2022-10-22T11:08:29.012Z,21.21
2022-10-22T11:12:12.441Z,21.45
2022-10-22T11:15:20.850Z,21.80
2022-10-22T11:18:32.349Z,21.87
2022-10-22T11:21:42.835Z,21.96
2022-10-22T11:25:03.754Z,21.89
2022-10-22T11:31:25.373Z,21.92
2022-10-22T11:34:34.833Z,21.80
2022-10-22T11:37:39.221Z,21.67
2022-10-22T11:40:50.758Z,21.43
2022-10-22T11:44:04.996Z,21.29
2022-10-22T11:47:25.460Z,21.18
2022-10-22T11:50:48.968Z,21.10
2022-10-22T11:53:57.126Z,21.25
2022-10-22T11:57:15.099Z,21.34
2022-10-22T12:00:35.741Z,21.41
2022-10-22T12:03:50.479Z,21.38
2022-10-22T12:07:01.602Z,21.24
2022-10-22T12:10:19.434Z,21.12
2022-10-22T12:13:25.381Z,20.93
2022-10-22T12:16:55.792Z,20.82
2022-10-22T12:20:04.943Z,20.71
2022-10-22T12:23:11.978Z,20.56
2022-10-22T12:29:34.193Z,20.30
2022-10-22T12:32:40.301Z,20.25
2022-10-22T12:35:45.320Z,20.23
2022-10-22T12:38:48.331Z,20.18
2022-10-22T12:41:52.748Z,20.31
2022-10-22T12:44:56.598Z,20.34
2022-10-22T12:48:02.400Z,20.34
2022-10-22T12:51:08.155Z,20.31
2022-10-22T12:54:20.541Z,20.16
2022-10-22T12:57:25.133Z,20.09
2022-10-22T13:00:34.946Z,20.04
2022-10-22T13:03:42.534Z,20.03
2022-10-22T13:06:48.730Z,20.08
2022-10-22T13:09:58.975Z,19.99
2022-10-22T13:13:08.363Z,19.93
2022-10-22T13:16:24.500Z,19.76
2022-10-22T13:20:05.420Z,19.73
2022-10-22T13:23:20.130Z,19.65
2022-10-22T13:26:25.138Z,19.56
2022-10-22T13:29:28.074Z,19.44
2022-10-22T13:32:33.802Z,19.36
2022-10-22T13:35:38.357Z,19.32
2022-10-22T13:38:42.562Z,19.29
2022-10-22T13:41:45.580Z,19.26
2022-10-22T13:44:48.486Z,19.27
2022-10-22T13:47:53.557Z,19.27
2022-10-22T13:50:56.671Z,19.20
2022-10-22T13:53:59.269Z,19.21
2022-10-22T13:57:02.111Z,19.25
2022-10-22T14:00:05.188Z,19.30
2022-10-22T14:03:20.313Z,19.21
2022-10-22T14:06:23.454Z,19.10
2022-10-22T14:09:26.019Z,19.03
2022-10-22T14:12:29.003Z,19.02
2022-10-22T14:15:31.557Z,18.94
2022-10-22T14:18:35.708Z,18.94
2022-10-22T14:21:38.467Z,18.98
2022-10-22T14:24:41.291Z,19.01
2022-10-22T14:27:44.331Z,18.98
2022-10-22T14:30:47.917Z,18.86
2022-10-22T14:33:50.553Z,18.78
2022-10-22T14:36:53.428Z,18.82
2022-10-22T14:40:01.730Z,18.76
2022-10-22T14:43:05.803Z,18.73
2022-10-22T14:46:11.279Z,18.61
2022-10-22T14:49:14.136Z,18.60
2022-10-22T14:52:16.803Z,18.61
2022-10-22T14:55:20.298Z,18.55
2022-10-22T14:58:23.031Z,18.57
2022-10-22T15:01:26.055Z,18.51
2022-10-22T15:04:30.522Z,18.44
2022-10-22T15:07:33.887Z,18.40
2022-10-22T15:10:36.455Z,18.50
2022-10-22T15:13:41.308Z,18.37
2022-10-22T15:16:44.213Z,18.31
2022-10-22T15:19:47.033Z,18.20
2022-10-22T15:22:49.726Z,18.12
2022-10-22T15:25:52.663Z,18.09
2022-10-22T15:28:55.310Z,18.33
2022-10-22T15:31:59.438Z,18.30
2022-10-22T15:35:02.461Z,18.36
2022-10-22T15:38:09.207Z,18.33
2022-10-22T15:41:13.501Z,18.11
2022-10-22T15:44:18.697Z,18.18
2022-10-22T15:47:22.649Z,18.14
2022-10-22T15:50:26.379Z,17.98
2022-10-22T15:53:28.969Z,17.84
2022-10-22T15:56:32.178Z,17.72
2022-10-22T15:59:36.060Z,17.68
2022-10-22T16:02:39.085Z,17.54
2022-10-22T16:05:50.269Z,17.49
2022-10-22T16:08:54.767Z,17.43
2022-10-22T16:11:57.739Z,17.45
2022-10-22T16:15:00.358Z,17.40
2022-10-22T16:18:03.265Z,17.34
2022-10-22T16:21:06.071Z,17.35
2022-10-22T16:24:09.711Z,17.31
2022-10-22T16:27:12.259Z,17.18
2022-10-22T16:30:15.236Z,17.18
2022-10-22T16:33:17.858Z,17.15
2022-10-22T16:36:21.323Z,17.17
2022-10-22T16:39:24.593Z,17.13
2022-10-22T16:42:27.480Z,17.12
2022-10-22T16:45:30.399Z,17.06
2022-10-22T16:48:34.047Z,16.96
2022-10-22T16:51:37.133Z,16.89
2022-10-22T16:54:40.047Z,16.88
2022-10-22T16:57:42.834Z,16.91
2022-10-22T17:00:46.122Z,16.85
2022-10-22T17:03:49.048Z,16.85
2022-10-22T17:06:52.096Z,16.76
2022-10-22T17:09:54.944Z,16.71
2022-10-22T17:12:58.075Z,16.74
2022-10-22T17:16:03.238Z,16.75
2022-10-22T17:19:06.719Z,16.68
2022-10-22T17:22:09.604Z,16.65
2022-10-22T17:25:15.614Z,16.61
2022-10-22T17:28:18.337Z,16.57
2022-10-22T17:31:24.930Z,16.57
2022-10-22T17:34:30.323Z,16.50
2022-10-22T17:37:34.416Z,16.43
2022-10-22T17:40:39.055Z,16.45
2022-10-22T17:43:42.037Z,16.42
2022-10-22T17:46:45.347Z,16.35
2022-10-22T17:49:48.563Z,16.08
2022-10-22T17:52:52.410Z,15.76
2022-10-22T17:56:01.706Z,15.43
2022-10-22T17:59:04.474Z,15.19
2022-10-22T18:02:14.278Z,14.97
2022-10-22T18:05:17.207Z,14.83
2022-10-22T18:08:25.584Z,14.65
2022-10-22T18:11:28.525Z,14.60
2022-10-22T18:14:31.314Z,14.50
2022-10-22T18:17:37.155Z,14.42
2022-10-22T18:20:42.260Z,14.35
2022-10-22T18:23:45.875Z,14.23
2022-10-22T18:26:48.690Z,14.19
2022-10-22T18:29:51.848Z,14.15
2022-10-22T18:32:54.692Z,14.08
2022-10-22T18:36:04.397Z,14.07
2022-10-22T18:39:08.524Z,14.00
2022-10-22T18:42:11.971Z,14.01
2022-10-22T18:45:14.837Z,13.97
2022-10-22T18:48:20.210Z,13.87
2022-10-22T18:51:24.320Z,13.94
2022-10-22T18:54:27.476Z,13.82
2022-10-22T18:57:30.285Z,13.85
2022-10-22T19:00:35.692Z,13.80
2022-10-22T19:03:38.587Z,13.74
2022-10-22T19:06:45.251Z,13.74
2022-10-22T19:09:48.777Z,13.72
2022-10-22T19:12:51.846Z,13.72
2022-10-22T19:15:54.925Z,13.70
2022-10-22T19:19:07.552Z,13.70
2022-10-22T19:22:10.335Z,13.71
2022-10-22T19:25:13.705Z,13.67
2022-10-22T19:28:16.333Z,13.63
2022-10-22T19:31:23.656Z,13.65
2022-10-22T19:34:26.430Z,13.68
2022-10-22T19:37:29.892Z,13.65
2022-10-22T19:40:32.842Z,13.64
2022-10-22T19:43:35.953Z,13.62
2022-10-22T19:46:38.728Z,13.48
2022-10-22T19:49:42.574Z,13.49
2022-10-22T19:52:45.216Z,13.51
2022-10-22T19:55:48.252Z,13.46
2022-10-22T19:58:51.200Z,13.44
2022-10-22T20:01:54.264Z,13.48
2022-10-22T20:04:57.237Z,13.49
2022-10-22T20:08:00.044Z,13.42
2022-10-22T20:11:07.405Z,13.46
2022-10-22T20:14:09.952Z,13.36
2022-10-22T20:17:12.918Z,13.36
2022-10-22T20:20:15.744Z,13.38
2022-10-22T20:23:18.881Z,13.40
2022-10-22T20:26:23.895Z,13.36
2022-10-22T20:29:26.900Z,13.37
2022-10-22T20:32:29.449Z,13.34
2022-10-22T20:35:32.367Z,13.29
2022-10-22T20:41:43.667Z,13.26
2022-10-22T20:44:46.556Z,13.27
2022-10-22T20:47:51.734Z,13.22
2022-10-22T20:51:01.851Z,13.22
2022-10-22T20:54:07.447Z,13.19
2022-10-22T20:57:10.739Z,13.19
2022-10-22T21:00:14.317Z,13.13
2022-10-22T21:03:17.053Z,13.17
2022-10-22T21:06:23.073Z,13.14
2022-10-22T21:09:25.768Z,13.20
2022-10-22T21:12:28.639Z,13.15
2022-10-22T21:15:31.160Z,13.18
2022-10-22T21:18:34.335Z,13.17
2022-10-22T21:21:37.124Z,13.17
2022-10-22T21:24:41.152Z,13.13
2022-10-22T21:27:43.746Z,13.18
2022-10-22T21:30:46.656Z,13.14
2022-10-22T21:33:50.324Z,13.13
2022-10-22T21:36:53.190Z,13.10
2022-10-22T21:39:56.353Z,13.11
2022-10-22T21:42:59.256Z,13.09
2022-10-22T21:46:08.703Z,13.08
2022-10-22T21:49:12.257Z,13.11
2022-10-22T21:52:14.757Z,13.06
2022-10-22T21:55:17.867Z,13.06
2022-10-22T21:58:20.452Z,13.02
2022-10-22T22:01:23.932Z,12.97
2022-10-22T22:04:27.204Z,12.94
2022-10-22T22:07:30.010Z,12.85
2022-10-22T22:10:32.930Z,12.91
2022-10-22T22:13:35.599Z,12.89
2022-10-22T22:16:39.067Z,12.84
2022-10-22T22:19:41.695Z,12.80
2022-10-22T22:22:44.740Z,12.76
2022-10-22T22:25:47.402Z,12.73
2022-10-22T22:28:50.391Z,12.71
2022-10-22T22:31:52.907Z,12.72
2022-10-22T22:34:56.177Z,12.68
2022-10-22T22:37:59.015Z,12.65
2022-10-22T22:41:02.147Z,12.61
2022-10-22T22:44:04.992Z,12.50
2022-10-22T22:47:07.866Z,12.55
2022-10-22T22:50:10.671Z,12.41
2022-10-22T22:53:13.487Z,12.45
2022-10-22T22:56:24.378Z,12.40
2022-10-22T22:59:27.259Z,12.39
2022-10-22T23:02:29.792Z,12.36
2022-10-22T23:05:32.695Z,12.33
2022-10-22T23:08:35.685Z,12.31
2022-10-22T23:11:39.755Z,12.21
2022-10-22T23:14:42.272Z,12.32
2022-10-22T23:17:45.167Z,12.35
2022-10-22T23:20:47.958Z,12.34
2022-10-22T23:23:53.543Z,12.32
2022-10-22T23:26:59.349Z,12.31
2022-10-22T23:30:02.700Z,12.33
2022-10-22T23:33:06.319Z,12.30
2022-10-22T23:36:10.050Z,12.34
2022-10-22T23:39:15.058Z,12.38
2022-10-22T23:42:17.952Z,12.32
2022-10-22T23:45:20.560Z,12.27
2022-10-22T23:48:23.539Z,12.26
2022-10-22T23:51:26.596Z,12.26
2022-10-22T23:54:29.474Z,12.22
2022-10-22T23:57:32.049Z,12.23
